Newport, AR

12:15 PM CST on February 22, 2017 (GMT -0600)
Newport | | Change Station

Elev 240 ft 35.64 °N, 91.18 °W | Updated 19 minutes ago

Overcast
Overcast
66 °F
Feels Like 66 °F
N
0
Wind Variable Wind from North

Today
High -- | Low -- °F
--% Chance of Precip.
Yesterday
High -- | Low -- °F
Precip. -- in
Pressure 29.90 in
Visibility 10.0 miles
Clouds Few 1900 ft
Overcast 2700 ft
Dew Point 58 °F
Humidity 75%
Rainfall 0.00 in
Snow Depth Not available.
6:43 AM 5:53 PM
Waning Crescent, 16% visible
METAR KM19 221756Z AUTO 00000KT 10SM FEW019 OVC027 19/14 A2988 RMK AO2 SLP123 6//// T01890144 10194 20122 58003
Pressure 29.90 in
Visibility 10.0 miles
Clouds Few 1900 ft
Overcast 2700 ft
Dew Point 58 °F
Humidity 75%
Rainfall 0.00 in
Snow Depth Not available.
6:43 AM 5:53 PM
Waning Crescent, 16% visible
METAR KM19 221756Z AUTO 00000KT 10SM FEW019 OVC027 19/14 A2988 RMK AO2 SLP123 6//// T01890144 10194 20122 58003

Get Your Daily Forecast Email!

Thanks for signing up!

Be on the lookout for a verification email in your inbox.

You'll start receiving the daily forecast at 8 AM.

×

10-Day Weather Forecast

Almanac

Astronomy

Feb. 22, 2017 Rise Set
Actual Time
Civil Twilight
Nautical Twilight
Astronomical Twilight
Moon
Length of Visible Light
Length of Day
Tomorrow will be .
, % of the Moon is Illuminated

Today's Extremes

State Highs State Lows

Community

WunderPhotos

Upload Photos

1,962,540 photos uploaded!

WunderBlog® & News

Nearby

Air Quality

  Air Quality AQ Index Pollutant
Not available.

Snow Depth

Station Depth Elevation

Earthquake Activity

City Distance Mag. Time & Date
Minimum magnitude displayed is 2.5.

Coastal Water Temperatures

Place Temperature

Stations

Nearby Weather Stations

Station Location Temp. Windchill Dew Point Humidity Wind Precip. Elev Updated Type
                   

Watches & Warnings

There are currently no watches in effect.